Proctor, VT

1:53 PM EST on December 05, 2016 (GMT -0500)
The Hill | | Change Station

Elev 587 ft 43.66 °N, 73.03 °W | Updated 3 minutes ago

Overcast
Overcast
35.1 °F
Feels Like 35 °F
N
1.6
Wind Variable Wind from SSE
Gusts 4.5 mph

Today
High -- | Low -- °F
--% Chance of Precip.
Yesterday
High -- | Low -- °F
Precip. -- in
Pressure 29.92 in
Visibility 10.0 miles
Clouds Overcast 2000 ft
Windchill 35 °F
Dew Point 29 °F
Humidity 77%
Rainfall in
Snow Depth Not available.
7:10 AM 4:15 PM
Waxing Crescent, 34% visible
METAR KRUT 051756Z AUTO 10006KT 10SM OVC020 01/M02 A2985 RMK AO2 UPB04E10SNE04B10E37 SLP130 P0000 60000 T00061017 10006 21033 56019 FZRANO $
Pressure 29.92 in
Visibility 10.0 miles
Clouds Overcast 2000 ft
Windchill 35 °F
Dew Point 29 °F
Humidity 77%
Rainfall in
Snow Depth Not available.
7:10 AM 4:15 PM
Waxing Crescent, 34% visible
METAR KRUT 051756Z AUTO 10006KT 10SM OVC020 01/M02 A2985 RMK AO2 UPB04E10SNE04B10E37 SLP130 P0000 60000 T00061017 10006 21033 56019 FZRANO $

10-Day Weather Forecast

Almanac

Astronomy

Dec. 05, 2016 Rise Set
Actual Time
Civil Twilight
Nautical Twilight
Astronomical Twilight
Moon
Length of Visible Light
Length of Day
Tomorrow will be .
, % of the Moon is Illuminated

Today's Extremes

State Highs State Lows

Community

WunderPhotos

Upload Photos

1,955,851 photos uploaded!

WunderBlog® & News

Nearby

Air Quality

  Air Quality AQ Index Pollutant
Not available.

Snow Depth

Station Depth Elevation

Earthquake Activity

City Distance Mag. Time & Date
Minimum magnitude displayed is 2.5.

Coastal Water Temperatures

Place Temperature

Stations

Nearby Weather Stations

Station Location Temp. Windchill Dew Point Humidity Wind Precip. Elev Updated Type
                   

Watches & Warnings

There are currently no watches in effect.